Terminal Aerodrome Forecast
Issued by NWS Lake Charles, LA

Home | Current Version | Previous Version | Text Only | Print | Product List | Glossary On
Versions: 1 2 3 4 5 6 7 8 9 10 11 12 13 14 15 16 17 18
000
FTUS44 KLCH 050520
TAFLFT
TAF
KLFT 050520Z 0506/0606 00000KT P6SM SKC
      TEMPO 0509/0513 3SM BR
     FM051400 18007KT P6SM VCSH SCT050 PROB30 0518/0524 P6SM -TSRA
      BKN025CB=

USA.gov is the U.S. government's official web portal to all federal, state and local government web resources and services.